createdAt,value
2022-08-20T00:02:14.390Z,100839.81
2022-08-20T00:04:45.251Z,100845.84
2022-08-20T00:07:14.455Z,100855.38
2022-08-20T00:09:43.039Z,100856.22
2022-08-20T00:12:13.123Z,100850.97
2022-08-20T00:14:40.821Z,100850.00
2022-08-20T00:17:08.628Z,100860.47
2022-08-20T00:19:36.375Z,100853.44
2022-08-20T00:22:07.064Z,100858.69
2022-08-20T00:24:37.228Z,100861.28
2022-08-20T00:27:04.772Z,100864.69
2022-08-20T00:29:32.357Z,100863.81
2022-08-20T00:31:59.860Z,100856.75
2022-08-20T00:34:28.340Z,100861.97
2022-08-20T00:36:55.985Z,100860.13
2022-08-20T00:39:23.523Z,100863.50
2022-08-20T00:41:52.129Z,100864.44
2022-08-20T00:44:22.867Z,100868.81
2022-08-20T00:46:52.164Z,100863.59
2022-08-20T00:49:25.016Z,100856.63
2022-08-20T00:52:15.787Z,100859.09
2022-08-20T00:54:57.257Z,100863.38
2022-08-20T00:57:58.910Z,100856.25
2022-08-20T01:00:29.848Z,100864.03
2022-08-20T01:02:58.289Z,100869.16
2022-08-20T01:05:27.873Z,100876.13
2022-08-20T01:07:58.572Z,100855.09
2022-08-20T01:10:35.048Z,100853.47
2022-08-20T01:13:11.588Z,100866.56
2022-08-20T01:15:43.432Z,100876.06
2022-08-20T01:18:19.617Z,100862.03
2022-08-20T01:20:54.519Z,100868.13
2022-08-20T01:23:40.658Z,100867.16
2022-08-20T01:26:12.662Z,100868.81
2022-08-20T01:28:44.850Z,100874.91
2022-08-20T01:31:20.043Z,100869.59
2022-08-20T01:33:53.040Z,100880.94
2022-08-20T01:36:30.457Z,100873.00
2022-08-20T01:39:02.270Z,100872.03
2022-08-20T01:41:47.439Z,100879.94
2022-08-20T01:44:18.306Z,100880.81
2022-08-20T01:46:48.542Z,100873.63
2022-08-20T01:49:30.115Z,100861.38
2022-08-20T01:52:01.146Z,100868.25
2022-08-20T01:54:28.820Z,100876.13
2022-08-20T01:57:05.652Z,100878.66
2022-08-20T01:59:33.273Z,100881.25
2022-08-20T02:02:02.627Z,100868.19
2022-08-20T02:04:31.349Z,100881.06
2022-08-20T02:07:01.507Z,100878.31
2022-08-20T02:09:32.169Z,100878.31
2022-08-20T02:12:00.070Z,100874.84
2022-08-20T02:14:28.105Z,100879.19
2022-08-20T02:16:58.685Z,100880.03
2022-08-20T02:19:32.638Z,100879.16
2022-08-20T02:22:03.768Z,100886.25
2022-08-20T02:24:31.315Z,100875.81
2022-08-20T02:26:58.996Z,100888.88
2022-08-20T02:29:37.989Z,100881.91
2022-08-20T02:32:25.066Z,100888.91
2022-08-20T02:34:55.317Z,100894.22
2022-08-20T02:37:22.831Z,100888.06
2022-08-20T02:39:50.484Z,100901.19
2022-08-20T02:42:18.251Z,100899.28
2022-08-20T02:44:45.747Z,100904.63
2022-08-20T02:47:13.408Z,100891.47
2022-08-20T02:49:40.961Z,100901.09
2022-08-20T02:52:08.604Z,100903.63
2022-08-20T02:54:36.326Z,100909.66
2022-08-20T02:57:04.744Z,100914.06
2022-08-20T02:59:32.250Z,100915.81
2022-08-20T03:02:00.882Z,100908.94
2022-08-20T03:04:31.948Z,100909.97
2022-08-20T03:06:59.946Z,100905.53
2022-08-20T03:09:27.553Z,100904.84
2022-08-20T03:12:01.002Z,100897.03
2022-08-20T03:14:29.082Z,100904.97
2022-08-20T03:16:59.435Z,100900.53
2022-08-20T03:19:27.614Z,100914.47
2022-08-20T03:21:55.134Z,100904.13
2022-08-20T03:24:24.950Z,100906.84
2022-08-20T03:26:52.487Z,100905.09
2022-08-20T03:29:20.046Z,100899.09
2022-08-20T03:31:47.842Z,100903.44
2022-08-20T03:34:15.447Z,100911.41
2022-08-20T03:36:45.878Z,100914.00
2022-08-20T03:39:13.579Z,100914.13
2022-08-20T03:41:41.110Z,100913.28
2022-08-20T03:44:08.706Z,100915.13
2022-08-20T03:46:36.201Z,100907.22
2022-08-20T03:49:03.990Z,100919.53
2022-08-20T03:51:43.456Z,100920.53
2022-08-20T03:54:22.882Z,100930.25
2022-08-20T03:56:50.450Z,100911.97
2022-08-20T03:59:17.940Z,100923.34
2022-08-20T04:01:46.691Z,100930.38
2022-08-20T04:04:15.391Z,100930.56
2022-08-20T04:06:43.389Z,100925.00
2022-08-20T04:09:12.325Z,100930.44
2022-08-20T04:11:41.466Z,100927.97
2022-08-20T04:14:11.180Z,100930.44
2022-08-20T04:16:40.577Z,100926.00
2022-08-20T04:19:08.714Z,100920.69
2022-08-20T04:21:39.680Z,100927.66
2022-08-20T04:24:07.425Z,100931.19
2022-08-20T04:26:36.487Z,100929.44
2022-08-20T04:29:04.626Z,100921.72
2022-08-20T04:31:35.299Z,100928.75
2022-08-20T04:34:08.001Z,100921.84
2022-08-20T04:36:35.997Z,100922.78
2022-08-20T04:39:04.025Z,100913.47
2022-08-20T04:41:31.527Z,100914.69
2022-08-20T04:43:59.049Z,100908.88
2022-08-20T04:46:29.376Z,100921.22
2022-08-20T04:48:57.789Z,100927.44
2022-08-20T04:51:25.303Z,100910.91
2022-08-20T04:53:56.496Z,100924.06
2022-08-20T04:56:29.828Z,100920.56
2022-08-20T04:59:00.664Z,100891.75
2022-08-20T05:01:29.403Z,100911.25
2022-08-20T05:03:58.286Z,100914.59
2022-08-20T05:06:29.687Z,100906.72
2022-08-20T05:08:59.713Z,100905.69
2022-08-20T05:11:35.226Z,100923.06
2022-08-20T05:14:07.781Z,100913.41
2022-08-20T05:16:40.725Z,100909.91
2022-08-20T05:19:11.368Z,100925.69
2022-08-20T05:21:39.868Z,100906.63
2022-08-20T05:24:10.219Z,100932.72
2022-08-20T05:26:37.861Z,100917.94
2022-08-20T05:29:07.004Z,100923.28
2022-08-20T05:31:35.363Z,100927.59
2022-08-20T05:34:11.091Z,100924.03
2022-08-20T05:36:53.114Z,100915.34
2022-08-20T05:39:23.590Z,100928.44
2022-08-20T05:41:51.554Z,100922.41
2022-08-20T05:44:19.930Z,100929.47
2022-08-20T05:46:48.004Z,100929.50
2022-08-20T05:49:22.631Z,100932.09
2022-08-20T05:51:51.516Z,100934.69
2022-08-20T05:54:19.445Z,100924.25
2022-08-20T05:56:47.090Z,100933.88
2022-08-20T05:59:14.669Z,100931.28
2022-08-20T06:01:43.023Z,100934.84
2022-08-20T06:04:31.918Z,100934.91
2022-08-20T06:07:05.965Z,100929.72
2022-08-20T06:09:33.749Z,100934.09
2022-08-20T06:12:06.715Z,100926.25
2022-08-20T06:14:35.297Z,100935.09
2022-08-20T06:17:13.496Z,100932.69
2022-08-20T06:19:44.745Z,100925.72
2022-08-20T06:22:21.332Z,100927.50
2022-08-20T06:24:51.317Z,100920.59
2022-08-20T06:27:21.824Z,100941.56
2022-08-20T06:29:50.896Z,100923.28
2022-08-20T06:32:32.514Z,100922.47
2022-08-20T06:35:06.243Z,100919.09
2022-08-20T06:37:36.908Z,100924.41
2022-08-20T06:40:12.705Z,100921.06
2022-08-20T06:42:47.898Z,100919.38
2022-08-20T06:45:19.874Z,100921.13
2022-08-20T06:47:48.255Z,100923.69
2022-08-20T06:50:19.687Z,100929.78
2022-08-20T06:52:51.992Z,100925.34
2022-08-20T06:55:24.023Z,100910.59
2022-08-20T06:58:03.679Z,100907.31
2022-08-20T07:00:33.059Z,100903.13
2022-08-20T07:03:05.016Z,100908.66
2022-08-20T07:05:35.910Z,100901.53
2022-08-20T07:08:04.732Z,100878.47
2022-08-20T07:10:32.639Z,100888.97
2022-08-20T07:13:00.903Z,100893.47
2022-08-20T07:15:29.168Z,100888.31
2022-08-20T07:18:01.498Z,100897.97
2022-08-20T07:20:31.766Z,100889.28
2022-08-20T07:23:00.746Z,100885.00
2022-08-20T07:25:29.128Z,100885.88
2022-08-20T07:28:09.192Z,100892.03
2022-08-20T07:30:55.808Z,100885.06
2022-08-20T07:33:26.313Z,100875.41
2022-08-20T07:36:00.423Z,100885.94
2022-08-20T07:38:30.310Z,100882.41
2022-08-20T07:41:05.106Z,100881.56
2022-08-20T07:43:33.276Z,100883.25
2022-08-20T07:46:03.200Z,100879.72
2022-08-20T07:48:32.155Z,100878.84
2022-08-20T07:51:03.843Z,100889.34
2022-08-20T07:53:35.922Z,100879.75
2022-08-20T07:56:13.530Z,100884.13
2022-08-20T07:58:50.442Z,100890.25
2022-08-20T08:01:20.181Z,100899.94
2022-08-20T08:03:50.170Z,100886.75
2022-08-20T08:06:29.554Z,100877.97
2022-08-20T08:09:04.862Z,100888.44
2022-08-20T08:11:34.997Z,100895.41
2022-08-20T08:14:06.406Z,100881.31
2022-08-20T08:16:35.308Z,100891.72
2022-08-20T08:19:07.810Z,100898.63
2022-08-20T08:21:35.751Z,100903.88
2022-08-20T08:24:05.799Z,100909.88
2022-08-20T08:26:35.790Z,100899.38
2022-08-20T08:29:05.369Z,100903.66
2022-08-20T08:31:35.307Z,100903.63
2022-08-20T08:34:02.895Z,100915.84
2022-08-20T08:36:30.867Z,100914.00
2022-08-20T08:38:58.431Z,100910.50
2022-08-20T08:41:36.590Z,100909.72
2022-08-20T08:44:08.366Z,100907.13
2022-08-20T08:46:41.233Z,100909.72
2022-08-20T08:49:16.610Z,100908.88
2022-08-20T08:51:56.176Z,100918.44
2022-08-20T08:54:27.616Z,100914.81
2022-08-20T08:56:59.707Z,100917.31
2022-08-20T08:59:52.235Z,100921.59
2022-08-20T09:02:23.064Z,100914.63
2022-08-20T09:04:51.758Z,100906.72
2022-08-20T09:07:20.503Z,100915.44
2022-08-20T09:09:48.197Z,100913.66
2022-08-20T09:12:22.340Z,100920.63
2022-08-20T09:14:51.370Z,100930.19
2022-08-20T09:17:22.126Z,100931.03
2022-08-20T09:19:52.284Z,100920.50
2022-08-20T09:22:22.994Z,100929.16
2022-08-20T09:24:51.151Z,100919.50
2022-08-20T09:27:19.170Z,100929.94
2022-08-20T09:29:49.259Z,100936.81
2022-08-20T09:32:20.916Z,100923.53
2022-08-20T09:34:56.393Z,100918.25
2022-08-20T09:37:26.403Z,100925.13
2022-08-20T09:39:54.246Z,100920.69
2022-08-20T09:42:25.319Z,100925.00
2022-08-20T09:44:53.345Z,100922.47
2022-08-20T09:47:21.029Z,100926.78
2022-08-20T09:49:48.671Z,100923.28
2022-08-20T09:52:28.125Z,100924.22
2022-08-20T09:55:16.046Z,100933.03
2022-08-20T09:57:44.497Z,100923.44
2022-08-20T10:00:12.770Z,100929.53
2022-08-20T10:02:41.226Z,100922.41
2022-08-20T10:05:12.520Z,100925.78
2022-08-20T10:07:43.299Z,100900.50
2022-08-20T10:10:14.203Z,100898.78
2022-08-20T10:12:42.251Z,100894.44
2022-08-20T10:15:10.904Z,100887.44
2022-08-20T10:17:42.989Z,100882.25
2022-08-20T10:20:13.506Z,100884.75
2022-08-20T10:22:41.494Z,100901.22
2022-08-20T10:25:09.798Z,100902.94
2022-08-20T10:27:38.333Z,100912.53
2022-08-20T10:30:09.626Z,100920.38
2022-08-20T10:32:37.333Z,100918.72
2022-08-20T10:35:05.262Z,100900.31
2022-08-20T10:37:34.802Z,100918.72
2022-08-20T10:40:02.681Z,100916.97
2022-08-20T10:42:30.696Z,100914.38
2022-08-20T10:44:58.227Z,100908.34
2022-08-20T10:47:28.978Z,100910.03
2022-08-20T10:49:58.902Z,100916.97
2022-08-20T10:52:27.179Z,100902.94
2022-08-20T10:54:55.554Z,100908.19
2022-08-20T10:57:26.291Z,100907.34
2022-08-20T10:59:56.645Z,100903.06
2022-08-20T11:02:25.167Z,100903.25
2022-08-20T11:04:53.395Z,100894.56
2022-08-20T11:08:00.233Z,100901.59
2022-08-20T11:10:14.038Z,100904.28
2022-08-20T11:12:44.853Z,100896.53
2022-08-20T11:15:15.645Z,100896.63
2022-08-20T11:17:44.511Z,100896.75
2022-08-20T11:20:14.226Z,100890.78
2022-08-20T11:22:42.006Z,100874.31
2022-08-20T11:25:09.986Z,100874.47
2022-08-20T11:27:42.575Z,100863.19
2022-08-20T11:30:14.081Z,100875.53
2022-08-20T11:32:42.119Z,100861.66
2022-08-20T11:35:38.852Z,100859.03
2022-08-20T11:37:59.262Z,100868.72
2022-08-20T11:40:27.954Z,100855.69
2022-08-20T11:43:15.557Z,100849.53
2022-08-20T11:45:49.816Z,100853.97
2022-08-20T11:48:18.249Z,100849.63
2022-08-20T11:50:46.625Z,100847.88
2022-08-20T11:53:14.855Z,100832.16
2022-08-20T11:55:43.630Z,100842.69
2022-08-20T11:58:11.319Z,100845.34
2022-08-20T12:00:41.273Z,100825.19
2022-08-20T12:03:10.287Z,100830.44
2022-08-20T12:05:41.757Z,100833.88
2022-08-20T12:08:09.384Z,100821.66
2022-08-20T12:10:38.768Z,100825.97
2022-08-20T12:13:07.358Z,100829.47
2022-08-20T12:15:40.073Z,100821.59
2022-08-20T12:18:08.869Z,100826.84
2022-08-20T12:20:37.845Z,100817.34
2022-08-20T12:23:05.691Z,100809.53
2022-08-20T12:25:34.012Z,100807.84
2022-08-20T12:28:01.845Z,100809.66
2022-08-20T12:30:29.467Z,100799.22
2022-08-20T12:32:57.312Z,100798.38
2022-08-20T12:35:26.397Z,100805.41
2022-08-20T12:37:53.931Z,100807.13
2022-08-20T12:40:32.429Z,100802.78
2022-08-20T12:43:02.531Z,100793.19
2022-08-20T12:45:31.305Z,100803.66
2022-08-20T12:48:13.176Z,100795.78
2022-08-20T12:50:43.503Z,100788.78
2022-08-20T12:53:11.106Z,100787.84
2022-08-20T12:55:38.700Z,100765.97
2022-08-20T12:58:09.075Z,100779.09
2022-08-20T13:00:43.102Z,100764.22
2022-08-20T13:03:12.933Z,100779.97
2022-08-20T13:05:41.341Z,100779.09
2022-08-20T13:08:10.979Z,100776.47
2022-08-20T13:10:44.506Z,100773.00
2022-08-20T13:13:14.346Z,100759.00
2022-08-20T13:15:42.115Z,100764.25
2022-08-20T13:18:09.733Z,100756.41
2022-08-20T13:20:37.475Z,100761.63
2022-08-20T13:23:05.723Z,100760.78
2022-08-20T13:28:06.390Z,100769.50
2022-08-20T13:30:41.083Z,100752.91
2022-08-20T13:33:08.814Z,100756.47
2022-08-20T13:35:36.454Z,100752.09
2022-08-20T13:38:13.287Z,100747.72
2022-08-20T13:40:40.821Z,100758.25
2022-08-20T13:43:08.166Z,100765.22
2022-08-20T13:45:40.195Z,100763.41
2022-08-20T13:48:14.675Z,100755.56
2022-08-20T13:50:47.160Z,100756.38
2022-08-20T13:53:18.412Z,100751.13
2022-08-20T13:58:14.054Z,100736.31
2022-08-20T14:00:42.154Z,100745.00
2022-08-20T14:03:09.848Z,100742.38
2022-08-20T14:05:38.494Z,100743.25
2022-08-20T14:08:18.473Z,100738.03
2022-08-20T14:10:50.473Z,100733.63
2022-08-20T14:13:21.567Z,100732.72
2022-08-20T14:15:49.916Z,100729.22
2022-08-20T14:18:17.673Z,100730.06
2022-08-20T14:20:45.728Z,100726.59
2022-08-20T14:23:14.448Z,100726.59
2022-08-20T14:25:46.025Z,100726.59
2022-08-20T14:28:18.572Z,100718.72
2022-08-20T14:30:53.054Z,100712.63
2022-08-20T14:33:22.457Z,100709.13
2022-08-20T14:35:50.128Z,100722.25
2022-08-20T14:38:20.823Z,100709.16
2022-08-20T14:40:50.473Z,100707.41
2022-08-20T14:43:19.738Z,100710.91
2022-08-20T14:45:47.257Z,100717.88
2022-08-20T14:48:15.150Z,100714.38
2022-08-20T14:50:43.032Z,100713.53
2022-08-20T14:53:10.659Z,100712.66
2022-08-20T14:55:38.564Z,100710.94
2022-08-20T14:58:11.355Z,100701.28
2022-08-20T15:00:39.027Z,100706.53
2022-08-20T15:03:06.593Z,100717.88
2022-08-20T15:05:35.273Z,100705.66
2022-08-20T15:08:10.018Z,100703.91
2022-08-20T15:10:39.270Z,100699.56
2022-08-20T15:13:09.504Z,100706.53
2022-08-20T15:15:40.722Z,100703.94
2022-08-20T15:18:08.465Z,100694.31
2022-08-20T15:20:39.104Z,100711.78
2022-08-20T15:23:06.960Z,100696.94
2022-08-20T15:25:37.342Z,100696.97
2022-08-20T15:28:15.217Z,100688.22
2022-08-20T15:30:45.313Z,100684.72
2022-08-20T15:33:13.026Z,100683.88
2022-08-20T15:35:40.690Z,100683.84
2022-08-20T15:38:10.441Z,100682.13
2022-08-20T15:40:38.029Z,100680.34
2022-08-20T15:43:06.825Z,100680.38
2022-08-20T15:45:35.675Z,100680.34
2022-08-20T15:48:11.958Z,100676.84
2022-08-20T15:50:47.633Z,100684.72
2022-08-20T15:53:23.109Z,100680.34
2022-08-20T15:56:03.354Z,100686.47
2022-08-20T15:58:58.918Z,100682.97
2022-08-20T16:01:47.653Z,100679.50
2022-08-20T16:04:52.377Z,100689.09
2022-08-20T16:07:55.181Z,100684.69
2022-08-20T16:10:47.983Z,100689.03
2022-08-20T16:13:52.534Z,100692.53
2022-08-20T16:16:36.390Z,100688.13
2022-08-20T16:19:06.274Z,100704.66
2022-08-20T16:21:37.266Z,100698.53
2022-08-20T16:24:07.175Z,100691.53
2022-08-20T16:27:13.512Z,100704.63
2022-08-20T16:29:46.423Z,100686.25
2022-08-20T16:32:31.690Z,100689.75
2022-08-20T16:35:09.358Z,100697.59
2022-08-20T16:37:52.205Z,100691.50
2022-08-20T16:40:28.424Z,100696.69
2022-08-20T16:42:59.620Z,100693.19
2022-08-20T16:45:31.428Z,100702.78
2022-08-20T16:48:06.851Z,100689.69
2022-08-20T16:50:38.366Z,100692.28
2022-08-20T16:53:10.296Z,100691.41
2022-08-20T16:55:37.853Z,100694.00
2022-08-20T16:58:07.972Z,100691.38
2022-08-20T17:00:42.534Z,100701.84
2022-08-20T17:03:39.423Z,100702.72
2022-08-20T17:06:27.283Z,100705.31
2022-08-20T17:08:55.685Z,100708.78
2022-08-20T17:11:33.152Z,100702.66
2022-08-20T17:14:08.810Z,100713.16
2022-08-20T17:16:45.904Z,100707.94
2022-08-20T17:19:20.166Z,100706.16
2022-08-20T17:21:50.264Z,100706.16
2022-08-20T17:24:26.058Z,100702.66
2022-08-20T17:27:10.846Z,100703.53
2022-08-20T17:29:50.402Z,100709.63
2022-08-20T17:32:28.246Z,100707.91
2022-08-20T17:34:59.626Z,100696.53
2022-08-20T17:37:33.473Z,100693.94
2022-08-20T17:40:47.199Z,100697.44
2022-08-20T17:43:44.730Z,100700.91
2022-08-20T17:46:18.992Z,100719.22
2022-08-20T17:48:51.760Z,100700.06
2022-08-20T17:51:23.858Z,100699.13
2022-08-20T17:54:18.748Z,100700.03
2022-08-20T17:56:53.746Z,100698.25
2022-08-20T18:00:00.895Z,100697.38
2022-08-20T18:02:28.318Z,100686.00
2022-08-20T18:04:57.295Z,100699.13
2022-08-20T18:07:40.732Z,100694.72
2022-08-20T18:10:14.522Z,100696.47
2022-08-20T18:12:51.053Z,100697.34
2022-08-20T18:15:24.144Z,100694.72
2022-08-20T18:18:07.882Z,100700.81
2022-08-20T18:21:03.066Z,100706.91
2022-08-20T18:23:52.155Z,100697.28
2022-08-20T18:26:26.571Z,100706.88
2022-08-20T18:29:07.947Z,100690.25
2022-08-20T18:31:52.191Z,100702.47
2022-08-20T18:34:40.094Z,100703.38
2022-08-20T18:37:25.485Z,100698.09
2022-08-20T18:39:53.294Z,100700.66
2022-08-20T18:42:26.161Z,100690.16
2022-08-20T18:44:55.307Z,100690.09
2022-08-20T18:47:33.312Z,100698.00
2022-08-20T18:50:15.734Z,100698.00
2022-08-20T18:52:51.926Z,100702.31
2022-08-20T18:55:33.789Z,100704.09
2022-08-20T18:58:08.544Z,100702.31
2022-08-20T19:00:48.582Z,100704.06
2022-08-20T19:03:39.181Z,100695.31
2022-08-20T19:06:15.658Z,100708.38
2022-08-20T19:09:05.894Z,100697.06
2022-08-20T19:11:49.935Z,100698.81
2022-08-20T19:14:17.393Z,100700.47
2022-08-20T19:16:52.812Z,100712.63
2022-08-20T19:19:23.731Z,100713.47
2022-08-20T19:21:52.661Z,100694.25
2022-08-20T19:24:26.675Z,100709.06
2022-08-20T19:26:57.579Z,100706.44
2022-08-20T19:29:33.781Z,100714.22
2022-08-20T19:32:06.774Z,100702.81
2022-08-20T19:34:34.971Z,100718.50
2022-08-20T19:37:35.762Z,100713.22
2022-08-20T19:40:28.304Z,100710.59
2022-08-20T19:42:59.544Z,100698.31
2022-08-20T19:45:37.404Z,100713.97
2022-08-20T19:48:10.565Z,100713.97
2022-08-20T19:50:58.486Z,100703.53
2022-08-20T19:53:31.957Z,100716.50
2022-08-20T19:56:03.455Z,100710.31
2022-08-20T19:58:32.653Z,100708.50
2022-08-20T20:01:02.460Z,100703.25
2022-08-20T20:03:35.055Z,100711.03
2022-08-20T20:06:17.162Z,100699.72
2022-08-20T20:09:00.050Z,100710.16
2022-08-20T20:11:37.489Z,100710.16
2022-08-20T20:14:14.223Z,100712.75
2022-08-20T20:16:45.767Z,100712.69
2022-08-20T20:19:30.142Z,100706.53
2022-08-20T20:22:20.338Z,100712.66
2022-08-20T20:25:00.580Z,100708.25
2022-08-20T20:27:29.155Z,100710.91
2022-08-20T20:30:02.473Z,100712.56
2022-08-20T20:32:34.076Z,100717.88
2022-08-20T20:35:05.046Z,100711.72
2022-08-20T20:37:50.865Z,100717.81
2022-08-20T20:40:26.028Z,100710.81
2022-08-20T20:42:58.303Z,100712.56
2022-08-20T20:45:34.067Z,100714.31
2022-08-20T20:48:40.166Z,100715.25
2022-08-20T20:51:23.006Z,100709.09
2022-08-20T20:53:54.679Z,100709.94
2022-08-20T20:56:28.344Z,100692.53
2022-08-20T20:58:56.459Z,100704.75
2022-08-20T21:01:34.499Z,100707.28
2022-08-20T21:04:12.422Z,100701.25
2022-08-20T21:06:40.205Z,100708.22
2022-08-20T21:09:08.362Z,100700.31
2022-08-20T21:11:36.418Z,100702.06
2022-08-20T21:14:04.033Z,100698.66
2022-08-20T21:16:31.735Z,100700.41
2022-08-20T21:18:59.243Z,100707.34
2022-08-20T21:21:26.829Z,100706.50
2022-08-20T21:23:54.489Z,100704.75
2022-08-20T21:26:22.573Z,100703.00
2022-08-20T21:28:50.322Z,100706.50
2022-08-20T21:31:19.656Z,100708.22
2022-08-20T21:33:47.354Z,100701.25
2022-08-20T21:36:15.128Z,100702.03
2022-08-20T21:38:43.074Z,100710.81
2022-08-20T21:41:10.899Z,100708.16
2022-08-20T21:43:38.797Z,100718.59
2022-08-20T21:46:09.271Z,100709.84
2022-08-20T21:48:43.233Z,100702.03
2022-08-20T21:51:14.003Z,100707.25
2022-08-20T21:53:41.632Z,100701.13
2022-08-20T21:56:10.548Z,100713.34
2022-08-20T21:58:40.859Z,100716.81
2022-08-20T22:01:09.499Z,100712.47
2022-08-20T22:03:38.944Z,100707.16
2022-08-20T22:06:12.801Z,100705.50
2022-08-20T22:08:40.959Z,100704.56
2022-08-20T22:11:10.784Z,100707.13
2022-08-20T22:13:39.822Z,100712.38
2022-08-20T22:16:09.710Z,100712.34
2022-08-20T22:18:37.447Z,100708.88
2022-08-20T22:21:12.185Z,100715.78
2022-08-20T22:23:42.837Z,100712.25
2022-08-20T22:26:10.592Z,100719.22
2022-08-20T22:28:38.932Z,100710.53
2022-08-20T22:31:06.896Z,100708.69
2022-08-20T22:33:35.214Z,100712.16
2022-08-20T22:36:05.028Z,100704.25
2022-08-20T22:38:32.974Z,100713.81
2022-08-20T22:41:07.668Z,100702.59
2022-08-20T22:43:46.290Z,100703.44
2022-08-20T22:46:28.525Z,100706.88
2022-08-20T22:48:56.960Z,100691.97
2022-08-20T22:51:30.449Z,100698.06
2022-08-20T22:53:59.318Z,100705.91
2022-08-20T22:56:27.443Z,100697.22
2022-08-20T22:58:59.530Z,100698.06
2022-08-20T23:01:28.758Z,100700.72
2022-08-20T23:04:22.934Z,100687.66
2022-08-20T23:06:50.944Z,100684.06
2022-08-20T23:09:21.170Z,100706.72
2022-08-20T23:11:49.507Z,100697.97
2022-08-20T23:14:17.214Z,100708.34
2022-08-20T23:16:49.567Z,100688.25
2022-08-20T23:19:23.591Z,100708.31
2022-08-20T23:21:52.035Z,100692.50
2022-08-20T23:24:20.034Z,100703.88
2022-08-20T23:26:52.507Z,100695.97
2022-08-20T23:29:25.736Z,100696.03
2022-08-20T23:31:59.770Z,100696.81
2022-08-20T23:34:27.963Z,100682.84
2022-08-20T23:36:57.036Z,100696.72
2022-08-20T23:39:25.785Z,100696.69
2022-08-20T23:41:54.241Z,100694.88
2022-08-20T23:44:26.155Z,100685.19
2022-08-20T23:47:01.265Z,100700.78
2022-08-20T23:49:29.723Z,100699.03
2022-08-20T23:52:00.480Z,100705.84
2022-08-20T23:54:29.896Z,100691.75
2022-08-20T23:56:57.650Z,100704.88
2022-08-20T23:59:25.711Z,100703.13
